This is the latest recevied weather packets stored in our database for station/object KJ4EBE. If no packets are shown the sender has not sent any weather packets the latest 10 day(s).
| Time | Temp. | Humidity | Pressure | Rain* | Wind** | Luminosity | Snow |
|---|---|---|---|---|---|---|---|
| 1777733991 | 20° C | 63% | 1022.1 hPa | 0 mm | - | 445 W/m² | - |
| 1777733688 | 18.89° C | 74% | 1022.2 hPa | 0 mm | - | 426 W/m² | - |
| 1777733384 | 20° C | 65% | 1022.2 hPa | 0 mm | - | 402 W/m² | - |
| 1777733081 | 18.89° C | 68% | 1022.1 hPa | 0 mm | - | 379 W/m² | - |
| 1777732778 | 18.89° C | 73% | 1022.1 hPa | 0 mm | - | 355 W/m² | - |
| 1777732475 | 18.33° C | 69% | 1022.2 hPa | 0 mm | - | 352 W/m² | - |
| 1777732172 | 19.44° C | 68% | 1022.1 hPa | 0 mm | - | 364 W/m² | - |
| 1777731869 | 18.89° C | 70% | 1022.2 hPa | 0 mm | - | 366 W/m² | - |
| 1777731566 | 18.33° C | 75% | 1022.1 hPa | 0 mm | - | 342 W/m² | - |
| 1777731264 | 18.33° C | 78% | 1022.1 hPa | 0 mm | - | 327 W/m² | - |
| 1777730961 | 17.78° C | 73% | 1022.1 hPa | 0 mm | - | 340 W/m² | - |
| 1777730660 | 17.78° C | 77% | 1022 hPa | 0 mm | - | 336 W/m² | - |
| 1777730355 | 17.22° C | 81% | 1021.9 hPa | 0 mm | - | 307 W/m² | - |
| 1777730052 | 16.67° C | 80% | 1021.9 hPa | 0 mm | - | 284 W/m² | - |
| 1777729748 | 15.56° C | 81% | 1021.7 hPa | 0 mm | - | 281 W/m² | - |
| 1777729445 | 15° C | 82% | 1021.9 hPa | 0 mm | - | 279 W/m² | - |
| 1777729141 | 13.89° C | 86% | 1021.8 hPa | 0 mm | - | 267 W/m² | - |
| 1777728838 | 12.22° C | 93% | 1021.8 hPa | 0 mm | - | 248 W/m² | - |
| 1777728535 | 11.67° C | 97% | 1021.8 hPa | 0 mm | - | 83 W/m² | - |
| 1777728232 | 10.56° C | 99% | 1021.7 hPa | 0 mm | - | 60 W/m² | - |
| 1777727929 | 10.56° C | 99% | 1021.4 hPa | 0 mm | - | 53 W/m² | - |
| 1777727626 | 10° C | 99% | 1021.6 hPa | 0 mm | - | 51 W/m² | - |
| 1777727323 | 9.44° C | 99% | 1021.5 hPa | 0 mm | - | 49 W/m² | - |
| 1777727021 | 9.44° C | 99% | 1021.3 hPa | 0 mm | - | 47 W/m² | - |
| 1777726717 | 9.44° C | 99% | 1021.1 hPa | 0 mm | - | 44 W/m² | - |
* Rain latest hour (hover to see other rain measurements)
** Current wind speed in m/s (hover to see current wind gust speed)